Verwoerd International Airport

Airport
ICAO code: 
FAPE
IATA Code: 
PLZ
Summary
ICAO Region: 
AFI
Territory: 
Location: 
, Eastern Cape
Serving: 
Port Elizabeth
Elevation: 
226 ft
Coordinates: 
Aerial View: 
33° 59' 5.708" S, 25° 37' 2.19" E
Metar
Observation
FAPE 060000Z 25011KT 9999 FEW005 SCT025 16/16 Q1009 NOSIG
Station
Port Elizabeth, Port E Apt
Date/Time
2021-12-06 00:00:00
Wind direction
250°
Wind speed
11 kts
Lowest cloud amount
few clouds
Temperature
16°C
Dew point
16°C
Humidity
100%
QNH
1009 hPa
Weather condition
n/a

Runways

Designator Length Width Surface Rops
10/28 1178 18 GRS No/No
17/35 1677 46 ASP Yes/Yes
8/26 1980 46 ASP Yes/Yes
Airport map: 
Aerial View: 

SKYbrary Partners:

Safety knowledge contributed by: